Accueil
METAR-TAF:

METAR-TAF

Aéroports :

Gombe Lawanti International Airport

Gombe, Nigeria

latitude: 10-18-19N, longitude: 10-54-31E, altitude: 505 m

Observation

Le bulletin a été fait il y a 10 heures et 16 minutes, à 16:00 UTC
Vent 4 kt de nord/nord-est
Température 35°C
Humidité 28%
Pression 1010 hPa
Visibilité 10 km ou plus
Quelques nuages à une hauteur de 1300 ft

METAR: DNGO 201600Z 02004KT 9999 FEW013 35/14 Q1010

Heure: 03:16 (02:16 UTC)

Prévision

Le bulletin a été fait il y a 3 heures et 16 minutes, à 23:00 UTC
Prévision valable du 21 à 00 UTC au 22 à 06 UTC
Vent 8 kt de sud-ouest
Visibilité 10 km ou plus
pas de nuages en-dessous de 1500 mètres et pas de cumulonimbus.

TAF: DNGO 202300Z 2100/2206 23008KT CAVOK

Observations et prévisions météorologiques de plus de 4000 aéroports (messages METAR et TAF).

Les stations disponibles sont représentées par des disques jaunes et rouges sur la carte.

Passer la souris dessus pour voir le nom de la station.

Cliquer dessus pour voir les observations et prévisions météorologiques.

Pour changer de carte: cliquez sur les boutons verts avec une croix noire pour zoomer, sur le bouton vert avec un tiret pour effectuer un zoom arrière, ou sur les flèches vertes pour les cartes adjacentes.


METAR-TAF: